sensor_id;sensor_type;location;lat;lon;timestamp;P1;durP1;ratioP1;P2;durP2;ratioP2
81306;SDS011;70775;50.846;3.224;2023-10-19T00:00:46;2.60;;;1.00;;
81306;SDS011;70775;50.846;3.224;2023-10-19T00:03:17;2.97;;;0.80;;
81306;SDS011;70775;50.846;3.224;2023-10-19T00:05:43;2.08;;;0.90;;
81306;SDS011;70775;50.846;3.224;2023-10-19T00:08:10;3.00;;;1.30;;
81306;SDS011;70775;50.846;3.224;2023-10-19T00:10:49;4.35;;;1.02;;
81306;SDS011;70775;50.846;3.224;2023-10-19T00:13:33;5.05;;;1.35;;
81306;SDS011;70775;50.846;3.224;2023-10-19T00:19:35;4.85;;;1.20;;
81306;SDS011;70775;50.846;3.224;2023-10-19T00:22:04;3.38;;;1.40;;
81306;SDS011;70775;50.846;3.224;2023-10-19T00:24:40;3.78;;;1.20;;
81306;SDS011;70775;50.846;3.224;2023-10-19T00:27:08;3.78;;;1.30;;
81306;SDS011;70775;50.846;3.224;2023-10-19T00:29:41;4.47;;;1.20;;
81306;SDS011;70775;50.846;3.224;2023-10-19T00:32:28;4.85;;;1.35;;
81306;SDS011;70775;50.846;3.224;2023-10-19T00:41:11;4.57;;;1.52;;
81306;SDS011;70775;50.846;3.224;2023-10-19T00:43:38;4.75;;;1.20;;
81306;SDS011;70775;50.846;3.224;2023-10-19T00:48:56;8.45;;;1.65;;
81306;SDS011;70775;50.846;3.224;2023-10-19T00:57:11;4.80;;;1.50;;
81306;SDS011;70775;50.846;3.224;2023-10-19T00:59:41;4.30;;;1.15;;
81306;SDS011;70775;50.846;3.224;2023-10-19T01:02:14;6.63;;;1.48;;
81306;SDS011;70775;50.846;3.224;2023-10-19T01:04:45;4.63;;;1.40;;
81306;SDS011;70775;50.846;3.224;2023-10-19T01:07:28;3.38;;;1.30;;
81306;SDS011;70775;50.846;3.224;2023-10-19T01:10:02;8.60;;;1.88;;
81306;SDS011;70775;50.846;3.224;2023-10-19T01:12:41;4.40;;;1.25;;
81306;SDS011;70775;50.846;3.224;2023-10-19T01:15:16;6.07;;;1.20;;
81306;SDS011;70775;50.846;3.224;2023-10-19T01:20:41;2.58;;;1.35;;
81306;SDS011;70775;50.846;3.224;2023-10-19T01:23:15;7.55;;;1.52;;
81306;SDS011;70775;50.846;3.224;2023-10-19T01:25:50;3.65;;;1.38;;
81306;SDS011;70775;50.846;3.224;2023-10-19T01:31:23;7.80;;;1.45;;
81306;SDS011;70775;50.846;3.224;2023-10-19T01:34:00;3.75;;;1.40;;
81306;SDS011;70775;50.846;3.224;2023-10-19T01:39:30;5.30;;;1.88;;
81306;SDS011;70775;50.846;3.224;2023-10-19T01:45:00;5.18;;;1.40;;
81306;SDS011;70775;50.846;3.224;2023-10-19T01:53:04;2.67;;;1.13;;
81306;SDS011;70775;50.846;3.224;2023-10-19T01:55:40;3.80;;;1.60;;
81306;SDS011;70775;50.846;3.224;2023-10-19T01:58:09;4.88;;;1.30;;
81306;SDS011;70775;50.846;3.224;2023-10-19T02:00:35;3.92;;;1.38;;
81306;SDS011;70775;50.846;3.224;2023-10-19T02:03:06;5.15;;;1.42;;
81306;SDS011;70775;50.846;3.224;2023-10-19T02:05:33;4.72;;;1.30;;
81306;SDS011;70775;50.846;3.224;2023-10-19T02:08:05;3.70;;;1.98;;
81306;SDS011;70775;50.846;3.224;2023-10-19T02:10:32;4.10;;;1.42;;
81306;SDS011;70775;50.846;3.224;2023-10-19T02:16:16;4.95;;;1.33;;
81306;SDS011;70775;50.846;3.224;2023-10-19T02:18:48;6.78;;;1.48;;
81306;SDS011;70775;50.846;3.224;2023-10-19T02:21:14;5.93;;;1.27;;
81306;SDS011;70775;50.846;3.224;2023-10-19T02:23:46;4.57;;;1.50;;
81306;SDS011;70775;50.846;3.224;2023-10-19T02:29:34;4.07;;;1.35;;
81306;SDS011;70775;50.846;3.224;2023-10-19T02:32:01;6.63;;;1.50;;
81306;SDS011;70775;50.846;3.224;2023-10-19T02:34:30;4.35;;;1.70;;
81306;SDS011;70775;50.846;3.224;2023-10-19T02:36:56;4.28;;;1.25;;
81306;SDS011;70775;50.846;3.224;2023-10-19T02:39:22;6.57;;;2.05;;
81306;SDS011;70775;50.846;3.224;2023-10-19T02:45:15;6.40;;;1.67;;
81306;SDS011;70775;50.846;3.224;2023-10-19T02:47:44;10.52;;;1.63;;
81306;SDS011;70775;50.846;3.224;2023-10-19T02:50:10;6.65;;;1.60;;
81306;SDS011;70775;50.846;3.224;2023-10-19T02:52:40;4.20;;;1.20;;
81306;SDS011;70775;50.846;3.224;2023-10-19T02:55:07;3.95;;;1.50;;
81306;SDS011;70775;50.846;3.224;2023-10-19T02:57:34;6.75;;;1.30;;
81306;SDS011;70775;50.846;3.224;2023-10-19T02:59:59;8.50;;;2.80;;
81306;SDS011;70775;50.846;3.224;2023-10-19T03:02:42;6.60;;;1.55;;
81306;SDS011;70775;50.846;3.224;2023-10-19T03:05:08;8.20;;;2.05;;
81306;SDS011;70775;50.846;3.224;2023-10-19T03:10:39;7.50;;;1.80;;
81306;SDS011;70775;50.846;3.224;2023-10-19T03:13:08;9.02;;;1.85;;
81306;SDS011;70775;50.846;3.224;2023-10-19T03:15:34;7.45;;;2.10;;
81306;SDS011;70775;50.846;3.224;2023-10-19T03:18:00;9.85;;;2.05;;
81306;SDS011;70775;50.846;3.224;2023-10-19T03:20:43;7.03;;;2.25;;
81306;SDS011;70775;50.846;3.224;2023-10-19T03:23:09;5.40;;;1.95;;
81306;SDS011;70775;50.846;3.224;2023-10-19T03:25:35;4.32;;;1.85;;
81306;SDS011;70775;50.846;3.224;2023-10-19T03:28:36;5.90;;;1.70;;
81306;SDS011;70775;50.846;3.224;2023-10-19T03:33:54;7.72;;;1.73;;
81306;SDS011;70775;50.846;3.224;2023-10-19T03:36:21;10.45;;;1.92;;
81306;SDS011;70775;50.846;3.224;2023-10-19T03:38:48;6.65;;;1.77;;
81306;SDS011;70775;50.846;3.224;2023-10-19T03:41:20;7.40;;;2.75;;
81306;SDS011;70775;50.846;3.224;2023-10-19T03:43:55;10.45;;;2.25;;
81306;SDS011;70775;50.846;3.224;2023-10-19T03:46:22;7.65;;;2.65;;
81306;SDS011;70775;50.846;3.224;2023-10-19T03:52:06;7.57;;;2.10;;
81306;SDS011;70775;50.846;3.224;2023-10-19T03:54:35;9.43;;;2.67;;
81306;SDS011;70775;50.846;3.224;2023-10-19T03:57:08;8.90;;;1.90;;
81306;SDS011;70775;50.846;3.224;2023-10-19T03:59:44;11.63;;;2.05;;
81306;SDS011;70775;50.846;3.224;2023-10-19T04:02:10;10.48;;;2.13;;
81306;SDS011;70775;50.846;3.224;2023-10-19T04:04:43;5.18;;;1.90;;
81306;SDS011;70775;50.846;3.224;2023-10-19T04:07:11;14.45;;;2.45;;
81306;SDS011;70775;50.846;3.224;2023-10-19T04:09:47;6.90;;;1.70;;
81306;SDS011;70775;50.846;3.224;2023-10-19T04:12:49;9.23;;;2.08;;
81306;SDS011;70775;50.846;3.224;2023-10-19T04:15:14;8.77;;;1.90;;
81306;SDS011;70775;50.846;3.224;2023-10-19T04:17:47;11.80;;;2.30;;
81306;SDS011;70775;50.846;3.224;2023-10-19T04:23:01;11.18;;;2.03;;
81306;SDS011;70775;50.846;3.224;2023-10-19T04:25:49;5.47;;;2.13;;
81306;SDS011;70775;50.846;3.224;2023-10-19T04:28:15;6.50;;;2.53;;
81306;SDS011;70775;50.846;3.224;2023-10-19T04:30:41;10.07;;;1.88;;
81306;SDS011;70775;50.846;3.224;2023-10-19T04:33:07;11.68;;;2.40;;
81306;SDS011;70775;50.846;3.224;2023-10-19T04:35:36;7.63;;;2.33;;
81306;SDS011;70775;50.846;3.224;2023-10-19T04:38:03;12.18;;;2.60;;
81306;SDS011;70775;50.846;3.224;2023-10-19T04:40:32;10.82;;;2.20;;
81306;SDS011;70775;50.846;3.224;2023-10-19T04:42:59;9.15;;;2.00;;
81306;SDS011;70775;50.846;3.224;2023-10-19T04:45:29;10.82;;;2.30;;
81306;SDS011;70775;50.846;3.224;2023-10-19T04:48:01;7.60;;;2.00;;
81306;SDS011;70775;50.846;3.224;2023-10-19T04:50:29;13.32;;;2.75;;
81306;SDS011;70775;50.846;3.224;2023-10-19T04:52:55;9.40;;;2.40;;
81306;SDS011;70775;50.846;3.224;2023-10-19T04:55:27;16.80;;;2.47;;
81306;SDS011;70775;50.846;3.224;2023-10-19T05:00:21;10.38;;;2.42;;
81306;SDS011;70775;50.846;3.224;2023-10-19T05:02:49;7.68;;;2.10;;
81306;SDS011;70775;50.846;3.224;2023-10-19T05:05:24;10.73;;;2.17;;
81306;SDS011;70775;50.846;3.224;2023-10-19T05:07:49;10.85;;;2.53;;
81306;SDS011;70775;50.846;3.224;2023-10-19T05:10:15;10.35;;;2.53;;
81306;SDS011;70775;50.846;3.224;2023-10-19T05:12:41;8.20;;;2.30;;
81306;SDS011;70775;50.846;3.224;2023-10-19T05:15:06;11.75;;;3.00;;
81306;SDS011;70775;50.846;3.224;2023-10-19T05:17:33;15.20;;;2.20;;
81306;SDS011;70775;50.846;3.224;2023-10-19T05:19:59;13.43;;;2.80;;
81306;SDS011;70775;50.846;3.224;2023-10-19T05:22:24;10.63;;;2.63;;
81306;SDS011;70775;50.846;3.224;2023-10-19T05:24:54;9.32;;;2.58;;
81306;SDS011;70775;50.846;3.224;2023-10-19T05:27:20;6.15;;;2.20;;
81306;SDS011;70775;50.846;3.224;2023-10-19T05:38:31;9.70;;;2.20;;
81306;SDS011;70775;50.846;3.224;2023-10-19T05:40:59;12.73;;;2.65;;
81306;SDS011;70775;50.846;3.224;2023-10-19T05:43:25;11.45;;;2.90;;
81306;SDS011;70775;50.846;3.224;2023-10-19T05:45:51;7.97;;;2.55;;
81306;SDS011;70775;50.846;3.224;2023-10-19T05:48:24;9.27;;;2.58;;
81306;SDS011;70775;50.846;3.224;2023-10-19T05:50:50;12.67;;;2.77;;
81306;SDS011;70775;50.846;3.224;2023-10-19T05:53:15;7.90;;;2.50;;
81306;SDS011;70775;50.846;3.224;2023-10-19T05:55:43;13.23;;;3.25;;
81306;SDS011;70775;50.846;3.224;2023-10-19T05:58:10;11.18;;;2.85;;
81306;SDS011;70775;50.846;3.224;2023-10-19T06:00:35;9.80;;;3.00;;
81306;SDS011;70775;50.846;3.224;2023-10-19T06:03:01;13.60;;;2.95;;
81306;SDS011;70775;50.846;3.224;2023-10-19T06:05:27;12.52;;;3.45;;
81306;SDS011;70775;50.846;3.224;2023-10-19T06:07:52;15.95;;;3.55;;
81306;SDS011;70775;50.846;3.224;2023-10-19T06:10:19;15.90;;;3.55;;
81306;SDS011;70775;50.846;3.224;2023-10-19T06:12:46;10.52;;;2.95;;
81306;SDS011;70775;50.846;3.224;2023-10-19T06:15:13;11.32;;;2.95;;
81306;SDS011;70775;50.846;3.224;2023-10-19T06:17:41;20.67;;;4.60;;
81306;SDS011;70775;50.846;3.224;2023-10-19T06:20:08;16.20;;;3.80;;
81306;SDS011;70775;50.846;3.224;2023-10-19T06:22:45;15.60;;;4.65;;
81306;SDS011;70775;50.846;3.224;2023-10-19T06:25:15;13.43;;;3.70;;
81306;SDS011;70775;50.846;3.224;2023-10-19T06:27:46;9.32;;;3.85;;
81306;SDS011;70775;50.846;3.224;2023-10-19T06:30:12;12.75;;;3.70;;
81306;SDS011;70775;50.846;3.224;2023-10-19T06:32:43;13.63;;;4.03;;
81306;SDS011;70775;50.846;3.224;2023-10-19T06:35:16;15.75;;;4.07;;
81306;SDS011;70775;50.846;3.224;2023-10-19T06:37:43;9.52;;;3.17;;
81306;SDS011;70775;50.846;3.224;2023-10-19T06:40:09;9.57;;;2.72;;
81306;SDS011;70775;50.846;3.224;2023-10-19T06:42:40;14.15;;;3.65;;
81306;SDS011;70775;50.846;3.224;2023-10-19T06:45:06;13.55;;;3.53;;
81306;SDS011;70775;50.846;3.224;2023-10-19T06:47:33;19.50;;;3.75;;
81306;SDS011;70775;50.846;3.224;2023-10-19T06:50:05;12.48;;;3.75;;
81306;SDS011;70775;50.846;3.224;2023-10-19T06:52:38;13.07;;;3.78;;
81306;SDS011;70775;50.846;3.224;2023-10-19T06:55:05;17.50;;;3.42;;
81306;SDS011;70775;50.846;3.224;2023-10-19T06:58:04;12.05;;;3.30;;
81306;SDS011;70775;50.846;3.224;2023-10-19T07:00:30;10.85;;;3.20;;
81306;SDS011;70775;50.846;3.224;2023-10-19T07:02:56;13.85;;;4.18;;
81306;SDS011;70775;50.846;3.224;2023-10-19T07:05:25;9.50;;;3.53;;
81306;SDS011;70775;50.846;3.224;2023-10-19T07:07:54;13.13;;;3.67;;
81306;SDS011;70775;50.846;3.224;2023-10-19T07:10:22;14.05;;;3.53;;
81306;SDS011;70775;50.846;3.224;2023-10-19T07:12:50;11.93;;;3.58;;
81306;SDS011;70775;50.846;3.224;2023-10-19T07:15:18;13.07;;;4.45;;
81306;SDS011;70775;50.846;3.224;2023-10-19T07:17:47;16.48;;;5.15;;
81306;SDS011;70775;50.846;3.224;2023-10-19T07:20:14;15.25;;;3.83;;
81306;SDS011;70775;50.846;3.224;2023-10-19T07:25:19;17.67;;;3.47;;
81306;SDS011;70775;50.846;3.224;2023-10-19T07:27:50;8.70;;;3.17;;
81306;SDS011;70775;50.846;3.224;2023-10-19T07:30:17;15.73;;;3.50;;
81306;SDS011;70775;50.846;3.224;2023-10-19T07:32:51;16.30;;;4.32;;
81306;SDS011;70775;50.846;3.224;2023-10-19T07:35:23;14.90;;;4.05;;
81306;SDS011;70775;50.846;3.224;2023-10-19T07:37:51;16.55;;;3.65;;
81306;SDS011;70775;50.846;3.224;2023-10-19T07:40:17;13.57;;;3.42;;
81306;SDS011;70775;50.846;3.224;2023-10-19T07:42:44;18.58;;;4.20;;
81306;SDS011;70775;50.846;3.224;2023-10-19T07:45:14;16.35;;;4.28;;
81306;SDS011;70775;50.846;3.224;2023-10-19T07:47:42;13.90;;;3.78;;
81306;SDS011;70775;50.846;3.224;2023-10-19T07:50:09;14.93;;;3.55;;
81306;SDS011;70775;50.846;3.224;2023-10-19T07:52:45;16.98;;;3.42;;
81306;SDS011;70775;50.846;3.224;2023-10-19T07:55:13;12.77;;;3.45;;
81306;SDS011;70775;50.846;3.224;2023-10-19T07:57:40;15.20;;;3.28;;
81306;SDS011;70775;50.846;3.224;2023-10-19T08:00:06;14.65;;;3.55;;
81306;SDS011;70775;50.846;3.224;2023-10-19T08:02:34;10.75;;;3.20;;
81306;SDS011;70775;50.846;3.224;2023-10-19T08:05:00;14.77;;;3.65;;
81306;SDS011;70775;50.846;3.224;2023-10-19T08:07:29;10.70;;;3.63;;
81306;SDS011;70775;50.846;3.224;2023-10-19T08:09:55;13.55;;;4.35;;
81306;SDS011;70775;50.846;3.224;2023-10-19T08:12:24;10.52;;;3.40;;
81306;SDS011;70775;50.846;3.224;2023-10-19T08:14:51;12.75;;;3.72;;
81306;SDS011;70775;50.846;3.224;2023-10-19T08:17:18;15.13;;;4.18;;
81306;SDS011;70775;50.846;3.224;2023-10-19T08:19:43;19.58;;;3.80;;
81306;SDS011;70775;50.846;3.224;2023-10-19T08:22:09;16.08;;;3.55;;
81306;SDS011;70775;50.846;3.224;2023-10-19T08:24:34;14.48;;;3.60;;
81306;SDS011;70775;50.846;3.224;2023-10-19T08:27:01;11.00;;;3.22;;
81306;SDS011;70775;50.846;3.224;2023-10-19T08:29:26;13.85;;;3.35;;
81306;SDS011;70775;50.846;3.224;2023-10-19T08:31:52;15.65;;;3.53;;
81306;SDS011;70775;50.846;3.224;2023-10-19T08:34:18;18.95;;;3.97;;
81306;SDS011;70775;50.846;3.224;2023-10-19T08:36:45;16.77;;;3.20;;
81306;SDS011;70775;50.846;3.224;2023-10-19T08:39:11;15.45;;;3.67;;
81306;SDS011;70775;50.846;3.224;2023-10-19T08:41:38;18.77;;;4.00;;
81306;SDS011;70775;50.846;3.224;2023-10-19T08:44:06;18.65;;;3.13;;
81306;SDS011;70775;50.846;3.224;2023-10-19T08:46:44;10.70;;;3.28;;
81306;SDS011;70775;50.846;3.224;2023-10-19T08:49:12;11.77;;;3.97;;
81306;SDS011;70775;50.846;3.224;2023-10-19T08:51:43;12.18;;;3.38;;
81306;SDS011;70775;50.846;3.224;2023-10-19T08:54:10;11.02;;;2.95;;
81306;SDS011;70775;50.846;3.224;2023-10-19T08:59:39;11.57;;;3.30;;
81306;SDS011;70775;50.846;3.224;2023-10-19T09:02:05;15.70;;;3.28;;
81306;SDS011;70775;50.846;3.224;2023-10-19T09:04:32;13.85;;;2.95;;
81306;SDS011;70775;50.846;3.224;2023-10-19T09:07:05;12.43;;;3.88;;
81306;SDS011;70775;50.846;3.224;2023-10-19T09:09:35;14.80;;;3.10;;
81306;SDS011;70775;50.846;3.224;2023-10-19T09:12:04;14.02;;;3.45;;
81306;SDS011;70775;50.846;3.224;2023-10-19T09:14:32;19.55;;;3.70;;
81306;SDS011;70775;50.846;3.224;2023-10-19T09:17:00;19.90;;;4.00;;
81306;SDS011;70775;50.846;3.224;2023-10-19T09:19:38;11.27;;;3.40;;
81306;SDS011;70775;50.846;3.224;2023-10-19T09:22:05;16.05;;;3.90;;
81306;SDS011;70775;50.846;3.224;2023-10-19T09:24:47;14.45;;;3.22;;
81306;SDS011;70775;50.846;3.224;2023-10-19T09:27:17;10.63;;;2.60;;
81306;SDS011;70775;50.846;3.224;2023-10-19T09:29:43;12.77;;;3.45;;
81306;SDS011;70775;50.846;3.224;2023-10-19T09:32:10;14.80;;;3.25;;
81306;SDS011;70775;50.846;3.224;2023-10-19T09:34:38;15.25;;;3.42;;
81306;SDS011;70775;50.846;3.224;2023-10-19T09:37:08;13.23;;;3.30;;
81306;SDS011;70775;50.846;3.224;2023-10-19T09:39:34;14.10;;;2.50;;
81306;SDS011;70775;50.846;3.224;2023-10-19T09:42:10;17.35;;;3.97;;
81306;SDS011;70775;50.846;3.224;2023-10-19T09:44:40;16.02;;;3.95;;
81306;SDS011;70775;50.846;3.224;2023-10-19T09:47:11;13.80;;;3.75;;
81306;SDS011;70775;50.846;3.224;2023-10-19T09:49:38;12.20;;;2.60;;
81306;SDS011;70775;50.846;3.224;2023-10-19T09:52:05;18.23;;;3.45;;
81306;SDS011;70775;50.846;3.224;2023-10-19T09:54:42;12.75;;;2.95;;
81306;SDS011;70775;50.846;3.224;2023-10-19T09:57:14;13.38;;;3.72;;
81306;SDS011;70775;50.846;3.224;2023-10-19T09:59:45;15.52;;;3.22;;
81306;SDS011;70775;50.846;3.224;2023-10-19T10:02:14;11.85;;;3.33;;
81306;SDS011;70775;50.846;3.224;2023-10-19T10:04:45;13.75;;;3.17;;
81306;SDS011;70775;50.846;3.224;2023-10-19T10:07:12;9.77;;;3.03;;
81306;SDS011;70775;50.846;3.224;2023-10-19T10:09:42;13.85;;;3.40;;
81306;SDS011;70775;50.846;3.224;2023-10-19T10:12:29;15.77;;;2.40;;
81306;SDS011;70775;50.846;3.224;2023-10-19T10:15:00;13.63;;;2.95;;
81306;SDS011;70775;50.846;3.224;2023-10-19T10:17:29;15.05;;;2.58;;
81306;SDS011;70775;50.846;3.224;2023-10-19T10:22:44;14.10;;;3.08;;
81306;SDS011;70775;50.846;3.224;2023-10-19T10:25:30;11.57;;;2.97;;
81306;SDS011;70775;50.846;3.224;2023-10-19T10:27:58;15.60;;;2.95;;
81306;SDS011;70775;50.846;3.224;2023-10-19T10:30:24;13.25;;;2.83;;
81306;SDS011;70775;50.846;3.224;2023-10-19T10:32:50;11.32;;;3.00;;
81306;SDS011;70775;50.846;3.224;2023-10-19T10:38:05;14.40;;;2.50;;
81306;SDS011;70775;50.846;3.224;2023-10-19T10:43:13;15.00;;;2.83;;
81306;SDS011;70775;50.846;3.224;2023-10-19T10:45:40;13.07;;;3.35;;
81306;SDS011;70775;50.846;3.224;2023-10-19T10:48:13;6.65;;;2.00;;
81306;SDS011;70775;50.846;3.224;2023-10-19T10:50:39;7.85;;;2.53;;
81306;SDS011;70775;50.846;3.224;2023-10-19T10:53:06;11.15;;;3.00;;
81306;SDS011;70775;50.846;3.224;2023-10-19T10:55:36;8.10;;;2.85;;
81306;SDS011;70775;50.846;3.224;2023-10-19T10:58:02;12.55;;;2.33;;
81306;SDS011;70775;50.846;3.224;2023-10-19T11:00:28;12.32;;;2.55;;
81306;SDS011;70775;50.846;3.224;2023-10-19T11:02:59;10.30;;;2.42;;
81306;SDS011;70775;50.846;3.224;2023-10-19T11:05:29;9.75;;;2.75;;
81306;SDS011;70775;50.846;3.224;2023-10-19T11:10:45;12.18;;;3.00;;
81306;SDS011;70775;50.846;3.224;2023-10-19T11:13:14;11.02;;;2.28;;
81306;SDS011;70775;50.846;3.224;2023-10-19T11:15:51;8.65;;;2.38;;
81306;SDS011;70775;50.846;3.224;2023-10-19T11:21:15;10.57;;;2.90;;
81306;SDS011;70775;50.846;3.224;2023-10-19T11:23:44;10.18;;;2.72;;
81306;SDS011;70775;50.846;3.224;2023-10-19T11:26:11;8.05;;;2.03;;
81306;SDS011;70775;50.846;3.224;2023-10-19T11:28:40;10.93;;;2.28;;
81306;SDS011;70775;50.846;3.224;2023-10-19T11:33:48;7.68;;;2.13;;
81306;SDS011;70775;50.846;3.224;2023-10-19T11:36:19;8.32;;;2.20;;
81306;SDS011;70775;50.846;3.224;2023-10-19T11:38:46;9.98;;;2.45;;
81306;SDS011;70775;50.846;3.224;2023-10-19T11:41:13;8.57;;;3.47;;
81306;SDS011;70775;50.846;3.224;2023-10-19T11:43:40;6.38;;;2.45;;
81306;SDS011;70775;50.846;3.224;2023-10-19T11:46:10;11.68;;;3.58;;
81306;SDS011;70775;50.846;3.224;2023-10-19T11:48:37;7.25;;;2.42;;
81306;SDS011;70775;50.846;3.224;2023-10-19T11:51:04;12.48;;;2.50;;
81306;SDS011;70775;50.846;3.224;2023-10-19T11:53:32;6.80;;;2.38;;
81306;SDS011;70775;50.846;3.224;2023-10-19T11:56:00;5.82;;;2.10;;
81306;SDS011;70775;50.846;3.224;2023-10-19T11:58:26;3.92;;;1.85;;
81306;SDS011;70775;50.846;3.224;2023-10-19T12:00:53;6.30;;;2.50;;
81306;SDS011;70775;50.846;3.224;2023-10-19T12:03:20;8.80;;;2.88;;
81306;SDS011;70775;50.846;3.224;2023-10-19T12:05:45;6.15;;;2.30;;
81306;SDS011;70775;50.846;3.224;2023-10-19T12:08:11;9.50;;;2.50;;
81306;SDS011;70775;50.846;3.224;2023-10-19T12:10:36;7.85;;;2.20;;
81306;SDS011;70775;50.846;3.224;2023-10-19T12:13:03;6.30;;;2.42;;
81306;SDS011;70775;50.846;3.224;2023-10-19T12:15:33;6.38;;;2.55;;
81306;SDS011;70775;50.846;3.224;2023-10-19T12:17:59;5.28;;;2.60;;
81306;SDS011;70775;50.846;3.224;2023-10-19T12:20:26;8.15;;;2.35;;
81306;SDS011;70775;50.846;3.224;2023-10-19T12:22:52;6.00;;;2.35;;
81306;SDS011;70775;50.846;3.224;2023-10-19T12:25:19;8.57;;;2.17;;
81306;SDS011;70775;50.846;3.224;2023-10-19T12:27:46;7.78;;;2.80;;
81306;SDS011;70775;50.846;3.224;2023-10-19T12:30:12;7.03;;;2.58;;
81306;SDS011;70775;50.846;3.224;2023-10-19T12:32:50;7.50;;;3.13;;
81306;SDS011;70775;50.846;3.224;2023-10-19T12:35:16;10.85;;;2.58;;
81306;SDS011;70775;50.846;3.224;2023-10-19T12:37:45;7.78;;;2.22;;
81306;SDS011;70775;50.846;3.224;2023-10-19T12:40:17;4.47;;;2.20;;
81306;SDS011;70775;50.846;3.224;2023-10-19T12:42:53;5.88;;;2.42;;
81306;SDS011;70775;50.846;3.224;2023-10-19T12:45:23;8.82;;;2.38;;
81306;SDS011;70775;50.846;3.224;2023-10-19T12:47:50;8.25;;;2.35;;
81306;SDS011;70775;50.846;3.224;2023-10-19T12:53:28;8.25;;;2.40;;
81306;SDS011;70775;50.846;3.224;2023-10-19T12:55:54;7.28;;;2.47;;
81306;SDS011;70775;50.846;3.224;2023-10-19T12:58:19;12.00;;;2.92;;
81306;SDS011;70775;50.846;3.224;2023-10-19T13:00:46;7.00;;;2.42;;
81306;SDS011;70775;50.846;3.224;2023-10-19T13:03:14;7.32;;;2.20;;
81306;SDS011;70775;50.846;3.224;2023-10-19T13:05:43;6.47;;;2.47;;
81306;SDS011;70775;50.846;3.224;2023-10-19T13:08:13;8.10;;;2.60;;
81306;SDS011;70775;50.846;3.224;2023-10-19T13:10:39;7.32;;;2.67;;
81306;SDS011;70775;50.846;3.224;2023-10-19T13:13:07;4.75;;;2.15;;
81306;SDS011;70775;50.846;3.224;2023-10-19T13:15:38;9.57;;;3.47;;
81306;SDS011;70775;50.846;3.224;2023-10-19T13:18:08;5.80;;;2.53;;
81306;SDS011;70775;50.846;3.224;2023-10-19T13:20:35;6.25;;;2.35;;
81306;SDS011;70775;50.846;3.224;2023-10-19T13:23:09;6.60;;;2.65;;
81306;SDS011;70775;50.846;3.224;2023-10-19T13:25:41;4.53;;;2.63;;
81306;SDS011;70775;50.846;3.224;2023-10-19T13:28:12;11.90;;;2.63;;
81306;SDS011;70775;50.846;3.224;2023-10-19T13:30:39;6.85;;;2.50;;
81306;SDS011;70775;50.846;3.224;2023-10-19T13:33:06;7.22;;;2.38;;
81306;SDS011;70775;50.846;3.224;2023-10-19T13:35:34;8.30;;;2.50;;
81306;SDS011;70775;50.846;3.224;2023-10-19T13:38:04;7.75;;;2.38;;
81306;SDS011;70775;50.846;3.224;2023-10-19T13:43:44;6.55;;;2.20;;
81306;SDS011;70775;50.846;3.224;2023-10-19T13:46:09;6.65;;;2.20;;
81306;SDS011;70775;50.846;3.224;2023-10-19T13:48:35;5.55;;;2.25;;
81306;SDS011;70775;50.846;3.224;2023-10-19T13:51:02;8.32;;;2.00;;
81306;SDS011;70775;50.846;3.224;2023-10-19T13:53:37;7.18;;;2.00;;
81306;SDS011;70775;50.846;3.224;2023-10-19T13:56:06;6.07;;;2.05;;
81306;SDS011;70775;50.846;3.224;2023-10-19T13:58:34;7.70;;;2.33;;
81306;SDS011;70775;50.846;3.224;2023-10-19T14:06:13;6.85;;;2.60;;
81306;SDS011;70775;50.846;3.224;2023-10-19T14:08:39;8.27;;;2.30;;
81306;SDS011;70775;50.846;3.224;2023-10-19T14:11:05;8.30;;;2.45;;
81306;SDS011;70775;50.846;3.224;2023-10-19T14:13:31;4.78;;;2.03;;
81306;SDS011;70775;50.846;3.224;2023-10-19T14:18:31;8.25;;;2.50;;
81306;SDS011;70775;50.846;3.224;2023-10-19T14:20:57;5.20;;;2.42;;
81306;SDS011;70775;50.846;3.224;2023-10-19T14:23:22;7.95;;;2.40;;
81306;SDS011;70775;50.846;3.224;2023-10-19T14:25:49;9.18;;;2.80;;
81306;SDS011;70775;50.846;3.224;2023-10-19T14:28:15;7.55;;;2.20;;
81306;SDS011;70775;50.846;3.224;2023-10-19T14:30:40;4.63;;;2.05;;
81306;SDS011;70775;50.846;3.224;2023-10-19T14:33:06;5.05;;;1.88;;
81306;SDS011;70775;50.846;3.224;2023-10-19T14:35:36;6.57;;;1.98;;
81306;SDS011;70775;50.846;3.224;2023-10-19T14:38:06;7.88;;;1.98;;
81306;SDS011;70775;50.846;3.224;2023-10-19T14:40:34;5.05;;;2.20;;
81306;SDS011;70775;50.846;3.224;2023-10-19T14:43:00;5.68;;;2.10;;
81306;SDS011;70775;50.846;3.224;2023-10-19T14:45:27;6.03;;;2.13;;
81306;SDS011;70775;50.846;3.224;2023-10-19T14:51:12;5.50;;;2.10;;
81306;SDS011;70775;50.846;3.224;2023-10-19T14:53:38;4.13;;;1.90;;
81306;SDS011;70775;50.846;3.224;2023-10-19T14:56:04;7.53;;;2.35;;
81306;SDS011;70775;50.846;3.224;2023-10-19T14:58:30;7.97;;;2.70;;
81306;SDS011;70775;50.846;3.224;2023-10-19T15:00:56;7.30;;;2.33;;
81306;SDS011;70775;50.846;3.224;2023-10-19T15:03:22;5.53;;;1.85;;
81306;SDS011;70775;50.846;3.224;2023-10-19T15:05:53;5.32;;;2.05;;
81306;SDS011;70775;50.846;3.224;2023-10-19T15:08:20;6.45;;;2.33;;
81306;SDS011;70775;50.846;3.224;2023-10-19T15:10:49;5.03;;;1.90;;
81306;SDS011;70775;50.846;3.224;2023-10-19T15:13:16;5.75;;;2.33;;
81306;SDS011;70775;50.846;3.224;2023-10-19T15:15:42;4.32;;;2.35;;
81306;SDS011;70775;50.846;3.224;2023-10-19T15:18:07;6.72;;;1.90;;
81306;SDS011;70775;50.846;3.224;2023-10-19T15:20:33;5.47;;;2.30;;
81306;SDS011;70775;50.846;3.224;2023-10-19T15:23:00;6.40;;;2.08;;
81306;SDS011;70775;50.846;3.224;2023-10-19T15:25:26;4.57;;;2.20;;
81306;SDS011;70775;50.846;3.224;2023-10-19T15:27:52;6.32;;;2.50;;
81306;SDS011;70775;50.846;3.224;2023-10-19T15:30:18;3.92;;;2.22;;
81306;SDS011;70775;50.846;3.224;2023-10-19T15:32:46;3.83;;;2.03;;
81306;SDS011;70775;50.846;3.224;2023-10-19T15:35:13;7.20;;;2.00;;
81306;SDS011;70775;50.846;3.224;2023-10-19T15:37:41;7.15;;;2.17;;
81306;SDS011;70775;50.846;3.224;2023-10-19T15:40:07;7.38;;;2.38;;
81306;SDS011;70775;50.846;3.224;2023-10-19T15:42:43;6.10;;;1.55;;
81306;SDS011;70775;50.846;3.224;2023-10-19T15:45:13;5.53;;;1.80;;
81306;SDS011;70775;50.846;3.224;2023-10-19T15:50:28;4.80;;;2.83;;
81306;SDS011;70775;50.846;3.224;2023-10-19T15:52:54;5.43;;;2.25;;
81306;SDS011;70775;50.846;3.224;2023-10-19T15:55:20;8.13;;;3.08;;
81306;SDS011;70775;50.846;3.224;2023-10-19T16:00:47;3.95;;;1.98;;
81306;SDS011;70775;50.846;3.224;2023-10-19T16:03:12;7.30;;;2.00;;
81306;SDS011;70775;50.846;3.224;2023-10-19T16:05:38;5.47;;;1.95;;
81306;SDS011;70775;50.846;3.224;2023-10-19T16:08:04;7.05;;;1.88;;
81306;SDS011;70775;50.846;3.224;2023-10-19T16:10:31;9.88;;;2.13;;
81306;SDS011;70775;50.846;3.224;2023-10-19T16:15:41;6.88;;;2.10;;
81306;SDS011;70775;50.846;3.224;2023-10-19T16:18:06;4.50;;;1.98;;
81306;SDS011;70775;50.846;3.224;2023-10-19T16:20:32;6.15;;;2.20;;
81306;SDS011;70775;50.846;3.224;2023-10-19T16:23:09;5.68;;;2.22;;
81306;SDS011;70775;50.846;3.224;2023-10-19T16:25:36;6.32;;;2.08;;
81306;SDS011;70775;50.846;3.224;2023-10-19T16:28:01;9.77;;;2.00;;
81306;SDS011;70775;50.846;3.224;2023-10-19T16:30:27;6.68;;;2.38;;
81306;SDS011;70775;50.846;3.224;2023-10-19T16:32:57;6.22;;;2.20;;
81306;SDS011;70775;50.846;3.224;2023-10-19T16:38:17;5.15;;;2.35;;
81306;SDS011;70775;50.846;3.224;2023-10-19T16:40:44;7.03;;;2.78;;
81306;SDS011;70775;50.846;3.224;2023-10-19T16:43:10;9.05;;;3.03;;
81306;SDS011;70775;50.846;3.224;2023-10-19T16:45:36;6.93;;;2.40;;
81306;SDS011;70775;50.846;3.224;2023-10-19T16:48:02;6.90;;;3.60;;
81306;SDS011;70775;50.846;3.224;2023-10-19T16:50:43;7.85;;;3.65;;
81306;SDS011;70775;50.846;3.224;2023-10-19T16:53:09;7.05;;;2.92;;